Hartsville Rgnl Information

FAA: HVS - ICAO: KHVS

Hartsville Rgnl (Airport) Location

State South Carolina
County Darlington
City Hartsville
Hartsville Rgnl (Airport) is 3 miles northwest of Hartsville, SC.
Latitude 34-24-11.1000N
Longitude 080-07-09.2000W
Elevation 363ft

Hartsville Rgnl METARs

METAR KHVS 170455Z AUTO 02006KT 10SM FEW044 BKN070 OVC090 20/16 A2991 RMK AO2 LTG DSNT E
Altimeter 29.91"
Temperature 20.0°C (68.0°F)
Wind 20° at 6KT
Clouds few at 4,400ft broken at 7,000ft overcast at 9,000ft
Visibility 10.0mi
Time observed: 2022-05-17T04:55:00Z

Hartsville Rgnl (Airport) Details

Status Operational
Activation April 1959
Ownership Public
Usage Public
Chart CHARLOTTE
ATC on-site No
Beacon schedule sunset-sunrise
Beacon color clear green

Hartsville Rgnl (Airport) Contacts

Owner CITY OF HARTSVILLE
Owner address PO BOX 2497, HARTSVILLE, SC 29550
Owner phone 843-383-3007
Manager MRS. RICHARD C. MIR
Manager address 3817 SE 158TH TER, WEIRSDALE, FL 32195
Manager phone 352-259-0408

Hartsville Rgnl Radio Frequencies

Hartsville Rgnl (Airport) Radio Frequencies

UNICOM 122.8
Common traffic advisory frequency (CTAF) 122.8